KDYS/DYS METAR and TAF weather

Enter ICAO airport designator
Station Type Date Time Source
KDYS METAR 2020/09/21 04:56 UTC NOAA

KDYS 210456Z AUTO 00000KT 10SM CLR 16/09 A3014 RMK AO2 SLP178 T01570087


Station Type Date Time Source
KDYS Decoded METAR 2020/09/21 04:56 UTC NOAA

Abilene, Dyess Air Force Base, TX, United States (KDYS) 32-25-12N 099-51-25W
Sep 21, 2020 - 12:56 AM EDT / 2020.09.21 0456 UTC
Wind: Calm:0
Visibility: 10 mile(s):0
Sky conditions: clear
Temperature: 60.3 F (15.7 C)
Dew Point: 47.7 F (8.7 C)
Relative Humidity: 63%
Pressure (altimeter): 30.14 in. Hg (1020 hPa)
ob: KDYS 210456Z AUTO 00000KT 10SM CLR 16/09 A3014 RMK AO2 SLP178 T01570087
cycle: 5

Station Type Date Time Source
KDYS TAF 2020/09/20 22:12 UTC NOAA

TAF KDYS 202200Z 2022/2204 06006KT 9999 SKC QNH3008INS
BECMG 2108/2109 VRB06KT 9999 BKN024 QNH3013INS
BECMG 2114/2115 VRB06KT 9999 SCT025 QNH3015INS
BECMG 2120/2121 04015KT 9999 FEW120 QNH3007INS TX24/2120Z TN16/2105Z LAST NO
AMDS AFT 2101 NEXT 2108

Example: see airport list